Monday, November 20, 2017, 2:01 PM EST
Back to Local

KBOS, Boston Logan International

Location: Boston, MA, United States Lat: 42.367
Local Time: 2:01 PM EST (19:01 GMT) Lon: -71.017
Time Zone: US/Eastern Elev: 19 ft

Show me the last for .
Show Decoded

2017-11-20 12:54 METAR KBOS 201754Z 27016G26KT 240V300 10SM SCT065 06/M09 A2989 RMK AO2 PK WND
                 26033/1713 SLP121 T00561089 10056 20017 53002 =
2017-11-20 11:54 METAR KBOS 201654Z 27022G33KT 10SM FEW060 04/M10 A2988 RMK AO2 PK WND 28035/1610
                 SLP119 T00441100 =
2017-11-20 10:54 METAR KBOS 201554Z 28018G31KT 10SM FEW035 FEW065 04/M10 A2989 RMK AO2 PK WND
                 28033/1535 SLP120 T00391100 =
2017-11-20 09:54 METAR KBOS 201454Z 27024G31KT 10SM FEW030 FEW200 03/M10 A2988 RMK AO2 PK WND
                 28032/1425 SLP119 T00331100 51022 =
2017-11-20 08:54 METAR KBOS 201354Z 29015G27KT 10SM FEW030 FEW200 02/M09 A2987 RMK AO2 PK WND
                 29028/1259 SLP114 T00221094 =
2017-11-20 07:54 METAR KBOS 201254Z 28017G26KT 10SM FEW030 FEW200 02/M09 A2985 RMK AO2 PK WND
                 27028/1208 SLP108 T00221089 =
2017-11-20 06:54 METAR KBOS 201154Z 27017G31KT 10SM FEW024 FEW042 02/M07 A2982 RMK AO2 PK WND
                 28031/1150 SNB32E41 SLP097 P0000 60000 70009 T00171072 10033 20017 53029 =
2017-11-20 05:54 METAR KBOS 201054Z 26014KT 10SM FEW050 02/M05 A2979 RMK AO2 SLP087 T00221050 =
2017-11-20 04:54 METAR KBOS 200954Z 26009G18KT 10SM SCT037 BKN055 03/M04 A2976 RMK AO2 SLP078
                 T00281039 =
2017-11-20 03:54 METAR KBOS 200854Z 26012G21KT 10SM SCT050 03/M05 A2973 RMK AO2 SLP068 T00281050
                 51026 =
2017-11-20 02:54 METAR KBOS 200754Z 26011G21KT 10SM FEW045 03/M04 A2971 RMK AO2 SLP061 T00281044
                 =
2017-11-20 01:54 METAR KBOS 200654Z 25011KT 10SM CLR 03/M04 A2970 RMK AO2 SLP055 T00281039 =
2017-11-20 00:54 METAR KBOS 200554Z 26016G23KT 10SM FEW045 03/M04 A2966 RMK AO2 PK WND 27026/0531
                 SLP042 T00331044 10050 20033 53014 =
2017-11-19 23:54 METAR KBOS 200454Z 25015G21KT 10SM FEW045 03/M04 A2964 RMK AO2 SLP037 T00331044
                 401560033 =
2017-11-19 22:54 METAR KBOS 200354Z 27014KT 10SM FEW045 04/M04 A2962 RMK AO2 SLP031 T00391044 =
2017-11-19 21:54 METAR KBOS 200254Z 29012KT 10SM FEW043 04/M05 A2962 RMK AO2 PK WND 28028/0155
                 SLP028 T00391050 51029 =
2017-11-19 20:54 METAR KBOS 200154Z 27021G30KT 10SM SCT043 04/M05 A2959 RMK AO2 PK WND 29030/0148
                 SLP020 T00441050 =
2017-11-19 19:54 METAR KBOS 200054Z 28018G25KT 10SM OVC041 05/M03 A2956 RMK AO2 PK WND 27030/0028
                 SLP011 T00501033 =
2017-11-19 18:54 METAR KBOS 192354Z 27020G27KT 10SM FEW060 FEW080 05/M03 A2953 RMK AO2 PK WND
                 27031/2326 SLP999 T00501033 10100 20044 51050 =
2017-11-19 17:54 METAR KBOS 192254Z 28019G25KT 10SM CLR 05/M03 A2949 RMK AO2 PK WND 27030/2202
                 SLP985 T00501033 =
2017-11-19 16:54 METAR KBOS 192154Z 27022G27KT 10SM FEW045 06/M03 A2943 RMK AO2 PK WND 27032/2133
                 SLP966 T00611028 =
2017-11-19 15:54 METAR KBOS 192054Z 27022G40KT 10SM SCT044 07/M02 A2938 RMK AO2 PK WND 28042/1955
                 SLP949 T00671022 53059 =
2017-11-19 14:54 METAR KBOS 191954Z 28022G33KT 10SM SCT045 08/M01 A2932 RMK AO2 PK WND 28041/1941
                 PRESRR SLP927 T00831011 =

Support USWX by starting your Amazon purchase here.